Time;durP1;ratioP1;P1;durP2;ratioP2;P2;SDS_P1;SDS_P2;PMS_P1;PMS_P2;Temp;Humidity;BMP_temperature;BMP_pressure;BME280_temperature;BME280_humidity;BME280_pressure;Samples;Min_cycle;Max_cycle;Signal;HPM_P1;HPM_P2
2023/05/16 00:01:00;;;;;;;16.27;4.00;;;9.30;99.90;;;;;;7365872;19;20425;-62
2023/05/16 00:03:26;;;;;;;16.58;3.70;;;9.20;99.90;;;;;;7365139;19;20018;-62
2023/05/16 00:05:53;;;;;;;22.48;4.40;;;9.20;99.90;;;;;;7367586;19;20018;-68
2023/05/16 00:08:19;;;;;;;18.30;4.07;;;9.10;99.90;;;;;;7362590;19;20015;-68
2023/05/16 00:10:45;;;;;;;19.55;4.15;;;9.10;99.90;;;;;;7368357;19;20026;-68
2023/05/16 00:13:12;;;;;;;18.98;3.65;;;9.10;99.90;;;;;;7372483;19;21157;-68
2023/05/16 00:15:38;;;;;;;18.63;3.60;;;9.10;99.90;;;;;;7372338;19;20022;-68
2023/05/16 00:18:05;;;;;;;14.75;3.47;;;9.00;99.90;;;;;;7372054;19;20019;-67
2023/05/16 00:20:31;;;;;;;20.00;4.47;;;9.00;99.90;;;;;;7373692;19;20022;-67
2023/05/16 00:23:00;;;;;;;16.45;4.40;;;9.00;99.90;;;;;;7371217;19;20082;-68
2023/05/16 00:25:27;;;;;;;17.10;3.53;;;9.00;99.90;;;;;;7372827;19;20014;-67
2023/05/16 00:27:53;;;;;;;17.10;3.88;;;8.90;99.90;;;;;;7374318;19;20014;-67
2023/05/16 00:30:21;;;;;;;17.10;3.80;;;8.90;99.90;;;;;;7375808;19;20537;-67
2023/05/16 00:32:47;;;;;;;18.35;3.70;;;8.90;99.90;;;;;;7372977;19;20372;-68
2023/05/16 00:35:14;;;;;;;15.02;4.07;;;8.90;99.90;;;;;;7376265;19;20014;-68
2023/05/16 00:37:42;;;;;;;17.48;3.80;;;8.80;99.90;;;;;;7366163;19;20018;-68
2023/05/16 00:40:09;;;;;;;16.38;3.33;;;8.70;99.90;;;;;;7365099;19;20015;-68
2023/05/16 00:42:35;;;;;;;16.75;3.53;;;8.70;99.90;;;;;;7373674;19;20346;-67
2023/05/16 00:45:04;;;;;;;16.08;3.50;;;8.70;99.90;;;;;;7370647;19;20019;-68
2023/05/16 00:47:30;;;;;;;18.80;3.08;;;8.70;99.90;;;;;;7357739;19;20018;-68
2023/05/16 00:49:57;;;;;;;14.93;3.50;;;8.60;99.90;;;;;;7369179;19;20029;-68
2023/05/16 00:52:23;;;;;;;12.20;2.60;;;8.60;99.90;;;;;;7369803;19;20018;-68
2023/05/16 00:54:51;;;;;;;17.33;4.15;;;8.50;99.90;;;;;;7370873;19;20085;-68
2023/05/16 00:57:17;;;;;;;20.95;4.10;;;8.50;99.90;;;;;;7365634;19;20709;-67
2023/05/16 00:59:46;;;;;;;19.42;3.53;;;8.40;99.90;;;;;;7363947;19;20039;-67
2023/05/16 01:02:13;;;;;;;15.18;3.17;;;8.40;99.90;;;;;;7362431;19;20022;-67
2023/05/16 01:04:39;;;;;;;18.73;3.92;;;8.40;99.90;;;;;;7363582;19;20028;-68
2023/05/16 01:07:05;;;;;;;14.80;4.07;;;8.40;99.90;;;;;;7360580;19;20019;-68
2023/05/16 01:09:34;;;;;;;19.05;3.97;;;8.30;99.90;;;;;;7371324;19;20874;-66
2023/05/16 01:12:18;;;;;;;17.45;3.70;;;8.30;99.90;;;;;;7368963;19;20469;-67
2023/05/16 01:14:55;;;;;;;20.08;3.47;;;8.30;99.90;;;;;;7372651;19;20254;-61
2023/05/16 01:17:41;;;;;;;12.70;3.10;;;8.20;99.90;;;;;;7370708;19;20018;-67
2023/05/16 01:20:14;;;;;;;16.80;3.80;;;8.20;99.90;;;;;;7366760;19;20383;-62
2023/05/16 01:22:53;;;;;;;17.13;3.03;;;8.10;99.90;;;;;;7373193;19;20467;-62
2023/05/16 01:25:31;;;;;;;17.63;2.88;;;8.10;99.90;;;;;;7368348;19;20018;-62
2023/05/16 01:28:00;;;;;;;16.20;3.28;;;8.00;99.90;;;;;;7367109;19;20014;-67
2023/05/16 01:30:31;;;;;;;16.98;3.50;;;8.00;99.90;;;;;;7359692;19;20549;-67
2023/05/16 01:32:57;;;;;;;14.63;3.42;;;8.00;99.90;;;;;;7358808;19;20018;-67
2023/05/16 01:35:24;;;;;;;15.63;2.97;;;8.00;99.90;;;;;;7360354;19;20018;-63
2023/05/16 01:38:17;;;;;;;17.10;3.00;;;7.90;99.90;;;;;;7365350;19;20014;-68
2023/05/16 01:40:55;;;;;;;14.07;3.05;;;7.90;99.90;;;;;;7362745;19;20484;-61
2023/05/16 01:43:33;;;;;;;14.80;2.97;;;7.90;99.90;;;;;;7362084;19;20029;-61
2023/05/16 01:46:13;;;;;;;17.25;3.10;;;7.90;99.90;;;;;;7368044;19;20074;-67
2023/05/16 01:49:00;;;;;;;14.90;3.13;;;7.80;99.90;;;;;;7368395;19;20370;-67
2023/05/16 01:51:32;;;;;;;18.48;2.90;;;7.80;99.90;;;;;;7369088;19;20365;-61
2023/05/16 01:54:05;;;;;;;12.63;3.15;;;7.80;99.90;;;;;;7368844;19;20497;-62
2023/05/16 01:56:32;;;;;;;15.07;2.80;;;7.70;99.90;;;;;;7359485;19;20046;-67
2023/05/16 01:59:01;;;;;;;12.70;2.70;;;7.70;99.90;;;;;;7364948;19;20446;-68
2023/05/16 02:01:29;;;;;;;16.92;3.40;;;7.70;99.90;;;;;;7365401;19;20872;-62
2023/05/16 02:03:57;;;;;;;12.48;2.55;;;7.60;99.90;;;;;;7367809;19;20555;-62
2023/05/16 02:06:25;;;;;;;14.05;2.58;;;7.60;99.90;;;;;;7368050;19;20798;-63
2023/05/16 02:08:51;;;;;;;14.30;3.13;;;7.60;99.90;;;;;;7368224;19;21237;-62
2023/05/16 02:11:17;;;;;;;14.95;3.05;;;7.60;99.90;;;;;;7367476;19;20022;-68
2023/05/16 02:13:43;;;;;;;18.35;3.33;;;7.50;99.90;;;;;;7360408;19;20572;-67
2023/05/16 02:16:10;;;;;;;16.35;2.90;;;7.50;99.90;;;;;;7360342;19;20355;-61
2023/05/16 02:18:38;;;;;;;16.75;3.33;;;7.40;99.90;;;;;;7360260;19;20023;-67
2023/05/16 02:21:04;;;;;;;16.85;2.90;;;7.40;99.90;;;;;;7360723;19;20085;-68
2023/05/16 02:23:31;;;;;;;12.10;2.55;;;7.40;99.90;;;;;;7359926;19;20046;-68
2023/05/16 02:25:57;;;;;;;14.50;3.50;;;7.40;99.90;;;;;;7351499;19;20572;-62
2023/05/16 02:28:23;;;;;;;15.07;3.55;;;7.40;99.90;;;;;;7359800;19;20025;-61
2023/05/16 02:30:57;;;;;;;19.80;2.90;;;7.40;99.90;;;;;;7365449;19;20022;-62
2023/05/16 02:33:25;;;;;;;13.43;2.83;;;7.30;99.90;;;;;;7360132;19;20018;-61
2023/05/16 02:35:52;;;;;;;17.90;3.20;;;7.30;99.90;;;;;;7360154;19;20051;-62
2023/05/16 02:38:20;;;;;;;17.48;2.72;;;7.40;99.90;;;;;;7357047;19;20026;-68
2023/05/16 02:40:48;;;;;;;9.98;2.60;;;7.40;99.90;;;;;;7362942;19;20019;-66
2023/05/16 02:43:14;;;;;;;16.02;3.17;;;7.50;99.90;;;;;;7365654;19;20026;-61
2023/05/16 02:45:42;;;;;;;13.25;2.33;;;7.60;99.90;;;;;;7367013;19;21641;-68
2023/05/16 02:48:08;;;;;;;14.38;2.78;;;7.60;99.90;;;;;;7369200;19;20530;-68
2023/05/16 02:50:36;;;;;;;16.55;2.80;;;7.70;99.90;;;;;;7360579;19;20539;-68
2023/05/16 02:53:02;;;;;;;14.00;2.70;;;7.70;99.90;;;;;;7365680;19;20375;-61
2023/05/16 02:55:29;;;;;;;13.27;2.90;;;7.70;99.90;;;;;;7365891;19;20018;-61
2023/05/16 02:57:56;;;;;;;16.42;2.50;;;7.70;99.90;;;;;;7368150;19;20018;-62
2023/05/16 03:00:23;;;;;;;14.68;2.80;;;7.70;99.90;;;;;;7369929;19;20018;-62
2023/05/16 03:02:49;;;;;;;17.90;2.92;;;7.60;99.90;;;;;;7368854;19;20015;-61
2023/05/16 03:05:16;;;;;;;13.15;2.67;;;7.60;99.90;;;;;;7367230;19;20023;-63
2023/05/16 03:07:42;;;;;;;16.88;2.72;;;7.50;99.90;;;;;;7365554;19;20374;-62
2023/05/16 03:10:09;;;;;;;14.55;2.70;;;7.50;99.90;;;;;;7362669;19;20544;-61
2023/05/16 03:12:35;;;;;;;12.38;2.45;;;7.40;99.90;;;;;;7364360;19;20370;-67
2023/05/16 03:15:01;;;;;;;13.05;2.55;;;7.30;99.90;;;;;;7364171;19;20042;-67
2023/05/16 03:17:28;;;;;;;18.27;2.92;;;7.30;99.90;;;;;;7365405;19;20018;-67
2023/05/16 03:19:54;;;;;;;17.83;3.92;;;7.20;99.90;;;;;;7365635;19;20022;-68
2023/05/16 03:22:21;;;;;;;14.90;3.45;;;7.10;99.90;;;;;;7365833;19;20481;-68
2023/05/16 03:24:47;;;;;;;15.13;3.20;;;7.20;99.90;;;;;;7365857;19;20014;-68
2023/05/16 03:27:13;;;;;;;14.27;2.97;;;7.10;99.90;;;;;;7366118;19;20362;-62
2023/05/16 03:29:39;;;;;;;14.95;3.88;;;7.10;99.90;;;;;;7370884;19;20014;-62
2023/05/16 03:32:06;;;;;;;18.00;3.53;;;7.10;99.90;;;;;;7370808;19;20018;-62
2023/05/16 03:34:32;;;;;;;16.27;2.85;;;7.00;99.90;;;;;;7365234;19;20366;-62
2023/05/16 03:36:58;;;;;;;9.90;2.42;;;6.90;99.90;;;;;;7361794;19;20019;-62
2023/05/16 03:39:25;;;;;;;11.07;2.80;;;7.00;99.90;;;;;;7367724;19;20011;-62
2023/05/16 03:41:54;;;;;;;17.02;3.40;;;6.90;99.90;;;;;;7365017;19;20754;-62
2023/05/16 03:44:21;;;;;;;10.02;2.95;;;6.90;99.90;;;;;;7366505;19;20041;-62
2023/05/16 03:46:47;;;;;;;11.70;2.78;;;6.90;99.90;;;;;;7363820;19;20370;-62
2023/05/16 03:49:13;;;;;;;17.10;2.95;;;6.90;99.90;;;;;;7361953;19;20022;-62
2023/05/16 03:51:39;;;;;;;12.75;3.03;;;6.90;99.90;;;;;;7367557;19;20022;-68
2023/05/16 03:54:05;;;;;;;16.85;3.40;;;6.90;99.90;;;;;;7368855;19;20524;-61
2023/05/16 03:56:31;;;;;;;11.00;2.80;;;6.90;99.90;;;;;;7371697;19;20587;-67
2023/05/16 03:58:58;;;;;;;16.10;3.20;;;6.80;99.90;;;;;;7372413;19;20594;-68
2023/05/16 04:01:24;;;;;;;13.70;2.30;;;6.80;99.90;;;;;;7373546;19;20018;-62
2023/05/16 04:03:50;;;;;;;13.60;2.78;;;6.80;99.90;;;;;;7376996;19;20018;-61
2023/05/16 04:06:17;;;;;;;15.57;3.35;;;6.80;99.90;;;;;;7376903;19;20015;-61
2023/05/16 04:08:43;;;;;;;15.25;3.40;;;6.80;99.90;;;;;;7379596;19;20039;-62
2023/05/16 04:11:10;;;;;;;16.30;3.13;;;6.80;99.90;;;;;;7373757;19;20010;-61
2023/05/16 04:13:36;;;;;;;12.60;2.90;;;6.80;99.90;;;;;;7377225;19;20055;-68
2023/05/16 04:16:02;;;;;;;15.70;3.15;;;6.80;99.90;;;;;;7376010;19;20561;-68
2023/05/16 04:18:28;;;;;;;10.68;3.10;;;6.80;99.90;;;;;;7375890;19;20017;-68
2023/05/16 04:20:54;;;;;;;13.30;2.60;;;6.90;99.90;;;;;;7369400;19;20140;-68
2023/05/16 04:23:23;;;;;;;12.65;3.20;;;6.90;99.90;;;;;;7370818;19;20031;-68
2023/05/16 04:25:49;;;;;;;13.05;3.08;;;6.90;99.90;;;;;;7367695;19;20371;-61
2023/05/16 04:28:15;;;;;;;13.25;3.38;;;6.90;99.90;;;;;;7368235;19;20349;-60
2023/05/16 04:30:42;;;;;;;14.07;3.85;;;7.00;99.90;;;;;;7370730;19;20015;-61
2023/05/16 04:33:08;;;;;;;13.45;2.55;;;7.00;99.90;;;;;;7363950;19;20025;-60
2023/05/16 04:35:36;;;;;;;13.70;3.03;;;7.10;99.90;;;;;;7363383;19;20433;-65
2023/05/16 04:38:03;;;;;;;12.27;3.15;;;7.10;99.90;;;;;;7370475;19;20375;-60
2023/05/16 04:40:30;;;;;;;12.80;3.75;;;7.20;99.90;;;;;;7377169;19;20094;-60
2023/05/16 04:42:57;;;;;;;12.35;2.90;;;7.30;99.90;;;;;;7375742;19;20047;-59
2023/05/16 04:45:23;;;;;;;10.48;3.13;;;7.30;99.90;;;;;;7376519;19;20565;-60
2023/05/16 04:47:50;;;;;;;13.70;2.63;;;7.40;99.90;;;;;;7376035;19;20018;-60
2023/05/16 04:50:17;;;;;;;13.90;3.08;;;7.40;99.90;;;;;;7373859;19;20082;-68
2023/05/16 04:52:43;;;;;;;11.02;2.90;;;7.50;99.90;;;;;;7371183;19;20014;-68
2023/05/16 04:55:12;;;;;;;12.77;2.88;;;7.50;99.90;;;;;;7372246;19;20045;-67
2023/05/16 04:57:39;;;;;;;15.27;3.92;;;7.60;99.90;;;;;;7368621;19;20497;-68
2023/05/16 05:00:10;;;;;;;13.50;2.75;;;7.70;99.90;;;;;;7365807;19;20022;-61
2023/05/16 05:02:40;;;;;;;12.23;2.65;;;7.80;99.90;;;;;;7361488;19;20540;-61
2023/05/16 05:05:07;;;;;;;17.05;3.45;;;8.00;99.90;;;;;;7372654;19;20018;-63
2023/05/16 05:07:33;;;;;;;11.80;3.17;;;8.20;99.90;;;;;;7375345;19;20103;-61
2023/05/16 05:10:00;;;;;;;15.82;2.53;;;8.50;99.90;;;;;;7366980;19;20014;-68
2023/05/16 05:12:26;;;;;;;12.38;2.78;;;8.60;99.90;;;;;;7367911;19;20045;-69
2023/05/16 05:14:53;;;;;;;12.05;2.30;;;8.80;99.90;;;;;;7368389;19;20418;-69
2023/05/16 05:17:20;;;;;;;11.00;2.30;;;9.00;99.90;;;;;;7364856;19;20025;-68
2023/05/16 05:19:49;;;;;;;9.77;2.90;;;9.10;99.90;;;;;;7371276;19;20115;-68
2023/05/16 05:22:16;;;;;;;11.77;2.50;;;9.30;99.90;;;;;;7373128;19;20015;-68
2023/05/16 05:24:42;;;;;;;11.73;2.80;;;9.50;99.90;;;;;;7374054;19;20021;-61
2023/05/16 05:27:09;;;;;;;13.93;2.92;;;9.80;99.90;;;;;;7375863;19;20010;-61
2023/05/16 05:29:35;;;;;;;10.77;2.30;;;9.90;99.90;;;;;;7374529;19;20019;-61
2023/05/16 05:32:01;;;;;;;14.70;2.60;;;10.00;99.90;;;;;;7374485;19;20561;-63
2023/05/16 05:34:27;;;;;;;10.52;2.28;;;10.20;99.90;;;;;;7373825;19;20011;-66
2023/05/16 05:36:54;;;;;;;10.15;2.67;;;10.40;99.90;;;;;;7369753;19;20386;-68
2023/05/16 05:39:20;;;;;;;10.32;2.47;;;10.50;99.90;;;;;;7372998;19;20085;-61
2023/05/16 05:41:47;;;;;;;11.57;3.00;;;10.70;99.90;;;;;;7375108;19;20018;-62
2023/05/16 05:44:13;;;;;;;11.95;3.03;;;10.80;99.90;;;;;;7371142;19;20022;-61
2023/05/16 05:46:43;;;;;;;9.80;2.70;;;11.00;99.90;;;;;;7377170;19;20011;-62
2023/05/16 05:49:09;;;;;;;11.95;2.08;;;11.20;99.90;;;;;;7372753;19;20019;-61
2023/05/16 05:51:36;;;;;;;11.80;3.22;;;11.40;99.90;;;;;;7375093;19;20674;-61
2023/05/16 05:54:02;;;;;;;11.95;2.33;;;11.60;99.90;;;;;;7368425;19;20019;-61
2023/05/16 05:56:28;;;;;;;11.68;2.20;;;11.60;99.90;;;;;;7359352;19;20022;-61
2023/05/16 05:58:55;;;;;;;12.73;2.83;;;11.70;99.90;;;;;;7373649;19;20037;-64
2023/05/16 06:01:22;;;;;;;14.07;2.50;;;11.70;99.90;;;;;;7373266;19;21031;-61
2023/05/16 06:03:48;;;;;;;12.50;2.55;;;11.90;99.90;;;;;;7371186;19;20465;-65
2023/05/16 06:06:15;;;;;;;9.38;2.38;;;12.10;99.90;;;;;;7373455;19;20026;-62
2023/05/16 06:08:41;;;;;;;11.80;1.70;;;12.30;99.90;;;;;;7375509;19;20022;-62
2023/05/16 06:11:08;;;;;;;10.52;2.38;;;12.40;99.90;;;;;;7374444;19;20015;-62
2023/05/16 06:13:34;;;;;;;10.63;2.35;;;12.50;99.90;;;;;;7370195;19;20485;-62
2023/05/16 06:16:00;;;;;;;31.45;4.75;;;12.50;99.90;;;;;;7364935;19;20019;-62
2023/05/16 06:18:26;;;;;;;13.18;3.38;;;12.40;99.90;;;;;;7370957;19;20018;-63
2023/05/16 06:20:53;;;;;;;87.60;12.43;;;12.70;99.90;;;;;;7368309;19;20022;-62
2023/05/16 06:23:20;;;;;;;20.90;3.08;;;12.50;99.90;;;;;;7366756;19;20022;-62
2023/05/16 06:25:47;;;;;;;12.30;2.65;;;12.60;99.90;;;;;;7366126;19;20021;-61
2023/05/16 06:28:13;;;;;;;33.75;5.07;;;12.70;99.90;;;;;;7366483;19;20018;-63
2023/05/16 06:30:39;;;;;;;35.97;4.38;;;12.90;99.90;;;;;;7369978;19;20478;-62
2023/05/16 06:33:06;;;;;;;10.30;2.00;;;12.90;99.90;;;;;;7367101;19;20016;-61
2023/05/16 06:35:32;;;;;;;11.68;2.08;;;13.10;99.90;;;;;;7365301;19;20018;-61
2023/05/16 06:37:59;;;;;;;13.98;2.97;;;13.00;99.90;;;;;;7369702;19;20077;-60
2023/05/16 06:40:25;;;;;;;7.47;1.70;;;13.10;99.90;;;;;;7372214;19;20015;-61
2023/05/16 06:42:52;;;;;;;13.45;2.80;;;13.20;99.90;;;;;;7374646;19;20025;-60
2023/05/16 06:45:18;;;;;;;10.63;1.77;;;13.10;99.90;;;;;;7371753;19;20671;-60
2023/05/16 06:47:45;;;;;;;11.85;2.63;;;13.10;99.90;;;;;;7370785;19;21022;-60
2023/05/16 06:50:11;;;;;;;9.00;2.13;;;13.20;99.90;;;;;;7371790;19;20018;-60
2023/05/16 06:52:37;;;;;;;8.25;1.58;;;12.90;99.90;;;;;;7368676;19;20357;-61
2023/05/16 06:55:03;;;;;;;8.23;1.90;;;12.60;99.90;;;;;;7372220;19;20052;-60
2023/05/16 06:57:30;;;;;;;12.65;1.80;;;12.50;99.90;;;;;;7369101;19;20015;-60
2023/05/16 06:59:56;;;;;;;8.77;1.65;;;12.50;99.90;;;;;;7375059;19;20473;-60
2023/05/16 07:02:22;;;;;;;5.13;1.10;;;12.20;99.90;;;;;;7374423;19;20597;-60
2023/05/16 07:04:48;;;;;;;2.67;0.95;;;11.70;99.90;;;;;;7372723;19;20026;-59
2023/05/16 07:07:14;;;;;;;4.32;1.00;;;11.60;99.90;;;;;;7367345;19;20019;-59
2023/05/16 07:09:41;;;;;;;6.90;1.05;;;11.40;99.90;;;;;;7364370;19;20018;-60
2023/05/16 07:12:07;;;;;;;4.82;1.05;;;11.30;99.90;;;;;;7362261;19;20620;-60
2023/05/16 07:14:34;;;;;;;5.47;1.25;;;11.10;99.90;;;;;;7364719;19;20913;-60
2023/05/16 07:17:00;;;;;;;4.50;1.10;;;11.00;99.90;;;;;;7368331;19;20604;-61
2023/05/16 07:19:27;;;;;;;6.47;1.25;;;11.30;99.90;;;;;;7371200;19;20026;-59
2023/05/16 07:21:53;;;;;;;3.28;1.05;;;11.70;99.90;;;;;;7374081;19;20015;-59
2023/05/16 07:24:19;;;;;;;6.90;1.45;;;12.20;99.90;;;;;;7372563;19;20014;-59
2023/05/16 07:26:45;;;;;;;7.22;1.17;;;12.70;99.90;;;;;;7377901;19;20019;-60
2023/05/16 07:29:14;;;;;;;7.10;1.48;;;13.10;99.90;;;;;;7379449;19;20473;-60
2023/05/16 07:31:40;;;;;;;7.38;1.33;;;13.30;99.90;;;;;;7379075;19;20238;-60
2023/05/16 07:34:06;;;;;;;4.38;1.05;;;13.70;99.90;;;;;;7379845;19;20485;-60
2023/05/16 07:36:33;;;;;;;4.88;1.73;;;14.10;99.90;;;;;;7377609;19;20022;-60
2023/05/16 07:39:00;;;;;;;6.65;1.23;;;13.90;99.90;;;;;;7378824;19;20022;-59
2023/05/16 07:41:26;;;;;;;7.38;1.58;;;14.30;99.90;;;;;;7378492;19;20023;-59
2023/05/16 07:43:53;;;;;;;10.70;1.88;;;14.50;99.90;;;;;;7375518;19;20014;-59
2023/05/16 07:46:19;;;;;;;5.30;1.33;;;14.60;99.90;;;;;;7371016;19;20917;-60
2023/05/16 07:48:47;;;;;;;5.32;1.45;;;14.80;99.90;;;;;;7367234;19;20022;-60
2023/05/16 07:51:13;;;;;;;7.38;2.17;;;14.90;99.90;;;;;;7371285;19;20014;-60
2023/05/16 07:53:40;;;;;;;7.40;1.88;;;15.10;99.90;;;;;;7375715;19;20022;-60
2023/05/16 07:56:07;;;;;;;6.80;1.48;;;15.30;99.90;;;;;;7377426;19;20022;-60
2023/05/16 07:58:37;;;;;;;6.15;1.17;;;15.50;99.90;;;;;;7377110;19;20026;-61
2023/05/16 08:01:03;;;;;;;7.78;1.60;;;15.70;99.90;;;;;;7378651;19;20159;-68
2023/05/16 08:03:29;;;;;;;6.25;1.63;;;15.70;99.90;;;;;;7378231;19;20025;-69
2023/05/16 08:05:56;;;;;;;9.20;1.40;;;15.70;99.90;;;;;;7369142;19;20026;-67
2023/05/16 08:08:22;;;;;;;6.72;1.80;;;15.70;99.90;;;;;;7377166;19;20015;-68
2023/05/16 08:10:48;;;;;;;7.55;1.35;;;15.90;99.90;;;;;;7374076;19;20046;-68
2023/05/16 08:13:14;;;;;;;11.00;1.88;;;16.40;92.80;;;;;;7376303;19;20018;-68
2023/05/16 08:15:43;;;;;;;6.47;1.48;;;15.80;97.20;;;;;;7373052;19;20033;-67
2023/05/16 08:18:14;;;;;;;6.03;1.40;;;16.40;97.00;;;;;;7374230;19;20109;-68
2023/05/16 08:20:41;;;;;;;8.32;1.83;;;16.90;95.90;;;;;;7374965;19;20026;-66
2023/05/16 08:23:08;;;;;;;5.20;1.35;;;17.10;78.40;;;;;;7371922;19;20035;-67
2023/05/16 08:25:34;;;;;;;6.18;1.42;;;16.70;90.40;;;;;;7369296;19;20032;-66
2023/05/16 08:28:01;;;;;;;4.63;1.20;;;16.20;87.40;;;;;;7369843;19;20018;-66
2023/05/16 08:30:27;;;;;;;7.05;2.10;;;15.20;83.60;;;;;;7370695;19;20114;-67
2023/05/16 08:32:54;;;;;;;4.15;1.23;;;14.80;94.50;;;;;;7365767;19;20504;-66
2023/05/16 08:35:21;;;;;;;5.35;1.45;;;15.00;98.40;;;;;;7369592;19;20482;-67
2023/05/16 08:37:47;;;;;;;6.25;1.63;;;15.60;99.90;;;;;;7369617;19;20569;-59
2023/05/16 08:40:14;;;;;;;4.25;1.00;;;16.10;99.90;;;;;;7375744;19;20018;-60
2023/05/16 08:42:41;;;;;;;8.50;1.83;;;16.20;98.40;;;;;;7378474;19;20082;-58
2023/05/16 08:45:08;;;;;;;10.60;1.85;;;16.00;97.20;;;;;;7375101;19;20015;-67
2023/05/16 08:47:40;;;;;;;6.10;1.90;;;16.10;96.50;;;;;;7375763;19;20906;-67
2023/05/16 08:50:09;;;;;;;13.95;2.58;;;16.00;94.40;;;;;;7373786;19;20018;-59
2023/05/16 08:52:37;;;;;;;8.07;1.90;;;15.40;97.90;;;;;;7374037;19;20025;-58
2023/05/16 08:55:04;;;;;;;8.93;2.28;;;14.70;95.20;;;;;;7374733;19;20018;-59
2023/05/16 08:57:32;;;;;;;5.78;1.90;;;15.80;96.70;;;;;;7373727;19;20019;-60
2023/05/16 08:59:59;;;;;;;8.65;1.50;;;16.40;94.50;;;;;;7369285;19;20018;-59
2023/05/16 09:02:27;;;;;;;6.82;1.30;;;16.90;76.30;;;;;;7368056;19;20792;-61
2023/05/16 09:04:56;;;;;;;6.80;1.38;;;16.10;74.20;;;;;;7367116;19;20588;-58
2023/05/16 09:07:22;;;;;;;16.42;2.35;;;16.00;70.00;;;;;;7365942;19;20021;-58
2023/05/16 09:09:49;;;;;;;16.92;2.95;;;15.40;74.70;;;;;;7368352;19;20020;-59
2023/05/16 09:12:15;;;;;;;7.15;1.35;;;16.00;78.00;;;;;;7367290;19;20651;-59
2023/05/16 09:14:42;;;;;;;6.22;1.20;;;15.70;71.50;;;;;;7371003;19;20462;-69
2023/05/16 09:17:08;;;;;;;8.27;2.25;;;15.50;70.80;;;;;;7369842;19;20019;-69
2023/05/16 09:19:42;;;;;;;9.43;1.63;;;15.20;72.30;;;;;;7373240;19;20015;-68
2023/05/16 09:22:13;;;;;;;5.00;1.80;;;14.70;84.90;;;;;;7373516;19;20045;-68
2023/05/16 09:24:43;;;;;;;9.57;1.42;;;14.90;79.30;;;;;;7375400;19;20014;-69
2023/05/16 09:27:10;;;;;;;8.48;2.40;;;15.40;77.80;;;;;;7375315;19;20025;-59
2023/05/16 09:29:40;;;;;;;14.05;1.90;;;15.80;75.10;;;;;;7373448;19;20446;-60
2023/05/16 09:32:13;;;;;;;12.35;2.78;;;16.70;75.20;;;;;;7371941;19;20018;-59
2023/05/16 09:34:48;;;;;;;9.02;1.60;;;17.30;64.50;;;;;;7372136;19;20022;-60
2023/05/16 09:37:14;;;;;;;6.93;1.83;;;17.00;66.30;;;;;;7372595;19;20033;-60
2023/05/16 09:39:49;;;;;;;10.48;3.63;;;17.60;66.40;;;;;;7371307;19;20411;-59
2023/05/16 09:42:21;;;;;;;7.85;1.65;;;17.60;64.30;;;;;;7371094;19;20359;-60
2023/05/16 09:44:53;;;;;;;9.25;1.55;;;18.00;64.80;;;;;;7365228;19;20044;-69
2023/05/16 09:47:26;;;;;;;90.28;14.38;;;17.80;61.20;;;;;;7372964;19;20578;-69
2023/05/16 09:49:53;;;;;;;6.65;1.63;;;18.00;60.70;;;;;;7374243;19;20334;-69
2023/05/16 09:52:19;;;;;;;11.38;6.13;;;17.70;61.30;;;;;;7372826;19;20427;-69
2023/05/16 09:54:49;;;;;;;6.22;1.48;;;18.50;64.40;;;;;;7372506;19;20540;-68
2023/05/16 09:57:20;;;;;;;12.77;5.15;;;18.20;59.00;;;;;;7371730;19;20018;-60
2023/05/16 09:59:47;;;;;;;7.03;1.65;;;17.60;60.00;;;;;;7372272;19;20022;-69
2023/05/16 10:02:14;;;;;;;7.65;2.58;;;17.40;60.00;;;;;;7368487;19;20589;-69
2023/05/16 10:04:40;;;;;;;7.10;1.35;;;16.90;59.90;;;;;;7373557;19;20094;-70
2023/05/16 10:07:08;;;;;;;7.40;1.90;;;17.70;59.90;;;;;;7368929;19;20078;-69
2023/05/16 10:09:39;;;;;;;9.55;1.70;;;17.70;58.90;;;;;;7364551;19;20015;-68
2023/05/16 10:12:07;;;;;;;7.57;1.40;;;17.20;58.40;;;;;;7368555;19;20521;-67
2023/05/16 10:14:36;;;;;;;5.25;1.48;;;17.40;58.30;;;;;;7373931;19;20018;-60
2023/05/16 10:17:11;;;;;;;8.32;3.53;;;17.30;57.60;;;;;;7373543;19;20018;-67
2023/05/16 10:19:40;;;;;;;10.00;3.05;;;17.80;58.60;;;;;;7369373;19;20481;-68
2023/05/16 10:22:09;;;;;;;6.97;1.40;;;18.00;59.40;;;;;;7368576;19;20042;-69
2023/05/16 10:24:54;;;;;;;9.90;1.83;;;18.50;57.90;;;;;;7370046;19;20018;-69
2023/05/16 10:27:21;;;;;;;7.38;1.30;;;18.40;55.60;;;;;;7369106;19;20015;-69
2023/05/16 10:29:49;;;;;;;6.63;1.27;;;18.70;55.20;;;;;;7371375;19;20362;-68
2023/05/16 10:32:15;;;;;;;7.32;2.65;;;18.80;54.50;;;;;;7366396;19;20014;-60
2023/05/16 10:34:42;;;;;;;7.10;2.28;;;19.60;54.30;;;;;;7371335;19;20489;-69
2023/05/16 10:37:08;;;;;;;6.05;1.33;;;18.90;52.70;;;;;;7368524;19;20014;-61
2023/05/16 10:39:35;;;;;;;6.80;2.28;;;19.00;53.30;;;;;;7372188;19;20022;-60
2023/05/16 10:42:02;;;;;;;8.23;1.10;;;19.10;53.40;;;;;;7370453;19;20011;-69
2023/05/16 10:44:32;;;;;;;5.18;1.05;;;19.30;53.00;;;;;;7369671;19;20015;-70
2023/05/16 10:47:00;;;;;;;7.00;1.67;;;19.40;53.80;;;;;;7372035;19;20031;-69
2023/05/16 10:49:27;;;;;;;5.60;1.38;;;18.60;52.00;;;;;;7372894;19;20021;-69
2023/05/16 10:52:07;;;;;;;9.48;1.63;;;17.90;52.40;;;;;;7368371;19;20046;-69
2023/05/16 10:54:41;;;;;;;7.23;2.73;;;18.40;51.90;;;;;;7365480;19;20029;-69
2023/05/16 10:57:16;;;;;;;5.07;1.17;;;18.80;53.40;;;;;;7361638;19;20018;-60
2023/05/16 10:59:54;;;;;;;11.82;4.97;;;18.90;52.00;;;;;;7370681;19;20598;-60
2023/05/16 11:02:28;;;;;;;7.50;1.83;;;18.50;52.60;;;;;;7375301;19;20442;-60
2023/05/16 11:04:58;;;;;;;5.60;1.33;;;18.10;53.40;;;;;;7378725;19;20042;-60
2023/05/16 11:07:31;;;;;;;6.82;1.75;;;18.40;54.10;;;;;;7367132;19;20669;-69
2023/05/16 11:10:09;;;;;;;6.15;1.58;;;17.70;53.10;;;;;;7375592;19;20018;-69
2023/05/16 11:12:46;;;;;;;7.60;1.13;;;17.20;53.80;;;;;;7372724;19;20374;-69
2023/05/16 11:15:27;;;;;;;5.03;1.02;;;16.90;54.70;;;;;;7371969;19;20034;-69
2023/05/16 11:18:09;;;;;;;4.68;0.82;;;18.10;56.00;;;;;;7366077;19;20021;-69
2023/05/16 11:20:38;;;;;;;4.43;0.82;;;19.00;54.80;;;;;;7371616;19;20024;-69
2023/05/16 11:23:16;;;;;;;5.35;1.13;;;18.80;55.30;;;;;;7373985;19;20440;-60
2023/05/16 11:25:44;;;;;;;3.30;0.88;;;19.00;55.00;;;;;;7373954;19;20034;-69
2023/05/16 11:28:14;;;;;;;7.35;1.55;;;19.00;54.70;;;;;;7368976;19;20361;-69
2023/05/16 11:30:46;;;;;;;7.15;1.20;;;19.00;55.00;;;;;;7371341;19;20066;-69
2023/05/16 11:33:12;;;;;;;6.20;1.13;;;19.10;54.50;;;;;;7370784;19;20050;-68
2023/05/16 11:35:38;;;;;;;5.65;1.60;;;18.90;54.60;;;;;;7372896;19;20572;-68
2023/05/16 11:38:04;;;;;;;5.20;1.60;;;19.10;53.90;;;;;;7369090;19;20673;-68
2023/05/16 11:40:31;;;;;;;7.53;1.85;;;20.00;54.20;;;;;;7368209;19;20019;-68
2023/05/16 11:43:03;;;;;;;6.25;1.80;;;18.90;53.20;;;;;;7371025;19;20018;-68
2023/05/16 11:45:29;;;;;;;6.30;2.33;;;18.70;52.80;;;;;;7372371;19;20031;-59
2023/05/16 11:48:02;;;;;;;6.28;1.58;;;18.70;53.90;;;;;;7370141;19;20494;-69
2023/05/16 11:50:30;;;;;;;5.82;1.27;;;18.90;53.00;;;;;;7369793;19;20014;-69
2023/05/16 11:52:56;;;;;;;6.72;1.75;;;17.80;52.50;;;;;;7373009;19;20155;-68
2023/05/16 11:55:29;;;;;;;8.18;2.33;;;17.60;53.10;;;;;;7371499;19;20342;-69
2023/05/16 11:57:57;;;;;;;7.57;1.80;;;17.50;54.10;;;;;;7370191;19;20067;-69
2023/05/16 12:00:25;;;;;;;8.95;3.17;;;16.90;55.10;;;;;;7370133;19;20607;-68
2023/05/16 12:02:54;;;;;;;4.85;1.48;;;16.90;56.60;;;;;;7367768;19;20102;-68
2023/05/16 12:05:25;;;;;;;7.45;2.33;;;16.80;56.70;;;;;;7370243;19;20015;-60
2023/05/16 12:07:54;;;;;;;;;;;15.70;60.40;;;;;;7376974;19;20070;-59
2023/05/16 12:10:21;;;;;;;8.10;1.98;;;14.80;99.90;;;;;;7372409;19;19954;-60
2023/05/16 12:12:51;;;;;;;7.15;2.13;;;14.40;99.90;;;;;;7367552;19;20022;-58
2023/05/16 12:15:18;;;;;;;7.55;2.05;;;14.00;99.90;;;;;;7373698;19;20022;-57
2023/05/16 12:17:46;;;;;;;5.40;1.88;;;13.80;99.90;;;;;;7374593;19;20022;-58
2023/05/16 12:20:15;;;;;;;8.20;2.25;;;13.90;99.90;;;;;;7380207;19;20018;-59
2023/05/16 12:22:43;;;;;;;10.30;2.10;;;14.20;99.90;;;;;;7380271;19;20025;-69
2023/05/16 12:25:24;;;;;;;8.60;2.38;;;15.00;99.90;;;;;;7380779;19;20046;-69
2023/05/16 12:27:53;;;;;;;10.43;2.20;;;15.80;99.90;;;;;;7379072;19;20095;-69
2023/05/16 12:30:22;;;;;;;9.98;1.85;;;16.80;99.90;;;;;;7375448;19;20836;-69
2023/05/16 12:32:54;;;;;;;7.38;2.25;;;16.70;99.90;;;;;;7378547;19;20044;-59
2023/05/16 12:35:21;;;;;;;7.78;2.63;;;16.40;99.90;;;;;;7379562;19;20525;-59
2023/05/16 12:37:50;;;;;;;9.57;2.33;;;16.40;99.90;;;;;;7374278;19;20019;-59
2023/05/16 12:40:16;;;;;;;9.18;2.53;;;17.20;99.90;;;;;;7375155;19;20014;-60
2023/05/16 12:42:44;;;;;;;8.52;2.53;;;17.90;99.90;;;;;;7379090;19;20021;-59
2023/05/16 12:45:17;;;;;;;7.65;2.50;;;17.80;79.40;;;;;;7375209;19;20417;-59
2023/05/16 12:47:43;;;;;;;9.45;2.13;;;17.50;82.10;;;;;;7375736;19;20019;-69
2023/05/16 12:50:12;;;;;;;7.50;2.38;;;17.00;99.20;;;;;;7374863;19;20085;-68